Time;durP1;ratioP1;P1;durP2;ratioP2;P2;SDS_P1;SDS_P2;PMS_P1;PMS_P2;Temp;Humidity;BMP_temperature;BMP_pressure;BME280_temperature;BME280_humidity;BME280_pressure;Samples;Min_cycle;Max_cycle;Signal;HPM_P1;HPM_P2
2022/03/02 00:00:21;;;;;;;;;41.25;35.00;;;;;12.43;43.65;101566.56;5077847;27;47833;-79
2022/03/02 00:02:47;;;;;;;;;43.75;36.75;;;;;12.34;43.58;101558.41;5077830;27;45671;-79
2022/03/02 00:05:13;;;;;;;;;40.25;36.00;;;;;12.32;43.60;101555.03;5096833;27;45548;-80
2022/03/02 00:07:39;;;;;;;;;39.00;35.00;;;;;12.43;43.48;101568.34;5095977;27;46891;-76
2022/03/02 00:10:05;;;;;;;;;38.25;34.75;;;;;12.09;43.60;101511.84;5096668;27;45938;-78
2022/03/02 00:12:31;;;;;;;;;40.00;34.00;;;;;12.09;43.67;101501.34;5096783;27;45560;-79
2022/03/02 00:14:57;;;;;;;;;39.25;35.75;;;;;12.20;43.29;101525.13;5097063;27;45914;-78
2022/03/02 00:17:23;;;;;;;;;41.25;33.00;;;;;12.29;43.47;101537.69;5098262;27;46610;-79
2022/03/02 00:19:48;;;;;;;;;46.50;37.50;;;;;12.38;43.48;101544.13;5096450;27;46029;-79
2022/03/02 00:22:14;;;;;;;;;43.50;35.75;;;;;12.29;43.60;101531.59;5097368;27;45558;-79
2022/03/02 00:28:01;;;;;;;;;42.00;35.00;;;;;12.35;43.46;101539.09;5090740;27;45649;-83
2022/03/02 00:30:28;;;;;;;;;31.50;29.25;;;;;12.33;43.39;101543.59;5098122;27;45519;-83
2022/03/02 00:32:54;;;;;;;;;43.50;38.00;;;;;12.28;43.36;101533.38;5096422;27;45587;-78
2022/03/02 00:35:20;;;;;;;;;40.00;33.50;;;;;12.19;43.32;101515.56;5096333;27;45508;-77
2022/03/02 00:37:46;;;;;;;;;43.00;35.25;;;;;12.30;43.44;101536.75;5095488;27;46859;-79
2022/03/02 00:40:13;;;;;;;;;38.00;34.50;;;;;12.28;43.47;101529.91;5095896;27;46209;-78
2022/03/02 00:42:39;;;;;;;;;40.25;35.75;;;;;12.18;43.59;101514.72;5096133;27;45623;-77
2022/03/02 00:45:05;;;;;;;;;40.00;35.00;;;;;12.16;43.54;101519.22;5096506;27;45773;-78
2022/03/02 00:47:31;;;;;;;;;38.25;33.25;;;;;12.26;43.66;101537.03;5095993;27;45644;-78
2022/03/02 00:49:57;;;;;;;;;43.50;34.50;;;;;12.20;43.67;101525.13;5095695;27;46647;-78
2022/03/02 00:52:24;;;;;;;;;37.75;34.25;;;;;12.19;43.71;101526.94;5095702;27;45628;-78
2022/03/02 00:58:10;;;;;;;;;39.75;35.00;;;;;12.20;43.66;101531.22;5095027;27;46206;-77
2022/03/02 01:00:37;;;;;;;;;42.75;35.50;;;;;12.16;43.73;101521.84;5096610;27;45726;-78
2022/03/02 01:03:03;;;;;;;;;41.75;34.00;;;;;12.20;43.63;101533.00;5095777;27;45618;-79
2022/03/02 01:05:28;;;;;;;;;39.00;31.75;;;;;12.19;43.67;101529.56;5095949;27;45438;-77
2022/03/02 01:07:54;;;;;;;;;39.00;35.25;;;;;12.19;43.79;101536.59;5095004;27;46811;-79
2022/03/02 01:13:46;;;;;;;;;38.50;34.75;;;;;12.15;43.86;101528.03;5095848;27;45539;-80
2022/03/02 01:16:13;;;;;;;;;43.00;35.00;;;;;12.13;43.72;101519.44;5095781;27;45774;-78
2022/03/02 01:18:38;;;;;;;;;44.25;37.00;;;;;12.00;43.55;101507.16;5096278;27;45598;-80
2022/03/02 01:21:03;;;;;;;;;41.75;35.00;;;;;12.03;43.58;101499.09;5096367;27;46129;-79
2022/03/02 01:23:29;;;;;;;;;45.75;34.00;;;;;12.09;43.40;101514.47;5099997;27;45537;-80
2022/03/02 01:25:54;;;;;;;;;39.00;34.75;;;;;12.09;43.70;101520.53;5097899;27;45530;-79
2022/03/02 01:28:20;;;;;;;;;39.25;34.50;;;;;12.07;43.75;101518.97;5094650;27;45619;-79
2022/03/02 01:30:45;;;;;;;;;39.25;33.25;;;;;12.06;43.79;101517.28;5095492;27;46027;-78
2022/03/02 01:33:11;;;;;;;;;39.50;35.25;;;;;12.04;43.69;101508.63;5095335;27;45741;-77
2022/03/02 01:35:36;;;;;;;;;38.25;32.25;;;;;12.06;43.52;101509.41;5094980;27;45623;-78
2022/03/02 01:38:02;;;;;;;;;35.50;32.50;;;;;12.08;43.43;101507.53;5095144;27;46790;-78
2022/03/02 01:43:52;;;;;;;;;38.00;32.75;;;;;12.04;43.36;101508.63;5095426;27;45887;-82
2022/03/02 01:46:18;;;;;;;;;38.25;32.25;;;;;12.02;43.53;101498.25;5095344;27;45818;-78
2022/03/02 01:48:45;;;;;;;;;45.50;36.00;;;;;11.94;43.39;101481.28;5095166;27;45630;-79
2022/03/02 01:51:11;;;;;;;;;36.25;32.00;;;;;12.01;43.57;101496.56;5095014;27;46137;-80
2022/03/02 01:53:37;;;;;;;;;42.75;34.50;;;;;11.99;43.44;101495.78;5094662;27;45794;-78
2022/03/02 01:56:03;;;;;;;;;35.25;34.25;;;;;11.99;43.49;101494.94;5094958;27;45589;-79
2022/03/02 01:58:30;;;;;;;;;39.00;34.75;;;;;11.93;43.68;101476.97;5095230;27;46418;-77
2022/03/02 02:00:57;;;;;;;;;40.00;35.25;;;;;11.84;43.45;101467.88;5097148;27;46103;-79
2022/03/02 02:03:23;;;;;;;;;38.50;34.25;;;;;11.95;43.64;101491.69;5077799;27;45971;-79
2022/03/02 02:05:49;;;;;;;;;40.25;36.50;;;;;11.89;43.59;101478.09;5095203;27;45530;-79
2022/03/02 02:08:15;;;;;;;;;41.00;35.75;;;;;11.92;43.63;101483.16;5095539;27;45764;-79
2022/03/02 02:14:02;;;;;;;;;42.50;37.50;;;;;11.92;43.53;101475.28;5094939;27;45564;-79
2022/03/02 02:16:31;;;;;;;;;38.75;35.50;;;;;11.92;43.63;101470.03;5094906;27;45462;-80
2022/03/02 02:18:58;;;;;;;;;42.75;33.75;;;;;11.93;43.66;101482.22;5096058;27;45659;-77
2022/03/02 02:21:24;;;;;;;;;45.25;36.25;;;;;11.90;43.56;101458.78;5077067;27;46052;-79
2022/03/02 02:23:50;;;;;;;;;44.00;36.00;;;;;11.90;43.59;101462.25;5076416;27;45684;-80
2022/03/02 02:26:15;;;;;;;;;55.75;36.50;;;;;11.61;43.73;101414.16;5095335;27;45652;-80
2022/03/02 02:28:43;;;;;;;;;45.50;37.50;;;;;11.87;43.70;101453.72;5096075;27;45625;-79
2022/03/02 02:31:09;;;;;;;;;51.25;42.00;;;;;11.76;43.60;101443.91;5094976;27;46288;-79
2022/03/02 02:33:34;;;;;;;;;50.25;38.50;;;;;11.82;43.81;101453.19;5094781;27;45625;-78
2022/03/02 02:36:03;;;;;;;;;40.75;34.00;;;;;11.68;43.72;101435.59;5094377;27;45787;-78
2022/03/02 02:38:29;;;;;;;;;39.25;35.00;;;;;11.69;43.79;101445.19;5094419;27;46540;-78
2022/03/02 02:44:16;;;;;;;;;46.50;39.50;;;;;11.64;43.70;101419.22;5096348;27;45886;-77
2022/03/02 02:46:43;;;;;;;;;39.75;37.75;;;;;11.71;44.02;101435.44;5097861;27;45598;-79
2022/03/02 02:49:10;;;;;;;;;41.00;36.25;;;;;11.69;43.80;101426.81;5098017;27;46725;-79
2022/03/02 02:51:36;;;;;;;;;40.25;33.25;;;;;11.61;43.80;101408.91;5097804;27;46226;-78
2022/03/02 02:54:05;;;;;;;;;44.00;36.25;;;;;11.67;43.94;101423.41;5097854;27;45659;-80
2022/03/02 02:56:30;;;;;;;;;44.75;36.50;;;;;11.66;43.90;101412.06;5079311;27;45700;-77
2022/03/02 02:58:55;;;;;;;;;34.50;31.00;;;;;11.63;43.88;101400.94;5098106;27;45640;-79
2022/03/02 03:01:21;;;;;;;;;42.75;36.00;;;;;11.63;43.84;101414.91;5097968;27;45602;-79
2022/03/02 03:03:47;;;;;;;;;42.25;34.25;;;;;11.52;43.87;101390.25;5099119;27;45654;-79
2022/03/02 03:06:13;;;;;;;;;44.25;37.50;;;;;11.63;43.92;101408.81;5097967;27;45539;-80
2022/03/02 03:08:38;;;;;;;;;40.00;35.25;;;;;11.55;43.94;101387.47;5097785;27;45697;-80
2022/03/02 03:14:26;;;;;;;;;38.25;31.75;;;;;11.41;43.97;101371.72;5097403;27;45656;-79
2022/03/02 03:16:51;;;;;;;;;41.75;35.75;;;;;11.59;44.12;101396.81;5097546;27;45604;-79
2022/03/02 03:19:17;;;;;;;;;34.75;30.75;;;;;11.62;44.20;101404.50;5097336;27;45672;-80
2022/03/02 03:21:42;;;;;;;;;41.25;33.75;;;;;11.62;44.10;101399.25;5097325;27;45984;-79
2022/03/02 03:24:07;;;;;;;;;39.00;33.75;;;;;11.62;44.14;101396.63;5097565;27;45976;-80
2022/03/02 03:26:33;;;;;;;;;39.75;34.75;;;;;11.51;44.05;101378.94;5097378;27;45581;-77
2022/03/02 03:28:58;;;;;;;;;45.75;37.75;;;;;11.59;44.17;101402.91;5096733;27;46440;-77
2022/03/02 03:31:24;;;;;;;;;53.25;36.25;;;;;11.49;44.03;101385.22;5096986;27;45796;-78
2022/03/02 03:33:49;;;;;;;;;36.50;31.75;;;;;11.52;44.30;101398.97;5097496;27;45682;-78
2022/03/02 03:36:15;;;;;;;;;39.25;34.25;;;;;11.53;44.21;101392.81;5098620;27;45616;-81
2022/03/02 03:38:41;;;;;;;;;36.25;35.00;;;;;11.55;44.27;101395.34;5099366;27;45492;-79
2022/03/02 03:44:28;;;;;;;;;39.25;35.00;;;;;11.53;44.26;101384.94;5098394;27;45878;-78
2022/03/02 03:46:53;;;;;;;;;36.25;34.50;;;;;11.53;44.24;101387.56;5097696;27;45719;-79
2022/03/02 03:49:19;;;;;;;;;45.00;38.00;;;;;11.54;44.43;101383.16;5097545;27;45774;-81
2022/03/02 03:51:46;;;;;;;;;41.00;36.00;;;;;11.53;44.41;101377.06;5095081;27;46800;-79
2022/03/02 03:54:12;;;;;;;;;43.25;35.50;;;;;11.55;44.34;101372.53;5078089;27;45552;-79
2022/03/02 03:56:37;;;;;;;;;40.25;37.00;;;;;11.53;44.41;101376.22;5095635;27;45536;-79
2022/03/02 03:59:04;;;;;;;;;37.75;35.25;;;;;11.51;44.34;101368.44;5096467;27;45468;-80
2022/03/02 04:01:29;;;;;;;;;38.75;34.50;;;;;11.54;44.32;101372.66;5096646;27;46118;-78
2022/03/02 04:03:55;;;;;;;;;43.25;36.00;;;;;11.53;44.30;101374.44;5096672;27;45587;-78
2022/03/02 04:06:20;;;;;;;;;38.25;31.50;;;;;11.52;44.22;101383.25;5096346;27;45652;-78
2022/03/02 04:08:46;;;;;;;;;37.25;32.25;;;;;11.47;44.30;101366.94;5096482;27;45705;-79
2022/03/02 04:14:33;;;;;;;;;45.00;34.00;;;;;11.47;44.33;101374.81;5101884;27;45645;-78
2022/03/02 04:16:59;;;;;;;;;39.00;33.00;;;;;11.44;44.16;101366.31;5112964;27;46037;-79
2022/03/02 04:19:25;;;;;;;;;47.75;39.50;;;;;11.12;44.38;101315.84;5116785;27;45576;-78
2022/03/02 04:21:50;;;;;;;;;43.50;35.75;;;;;11.40;44.17;101363.00;5117944;27;46389;-78
2022/03/02 04:24:15;;;;;;;;;37.00;32.50;;;;;11.38;44.24;101361.44;5116251;27;45551;-81
2022/03/02 04:30:16;;;;;;;;;40.00;36.25;;;;;11.42;44.24;101363.75;5093969;27;45686;-81
2022/03/02 04:32:42;;;;;;;;;44.00;37.00;;;;;11.34;44.32;101345.03;5108658;27;45573;-79
2022/03/02 04:35:09;;;;;;;;;41.50;35.50;;;;;11.39;44.14;101352.63;5101901;27;45657;-77
2022/03/02 04:37:35;;;;;;;;;39.00;36.00;;;;;11.32;44.26;101350.38;5097150;27;45500;-78
2022/03/02 04:40:00;;;;;;;;;39.50;33.00;;;;;11.34;44.36;101342.41;5096926;27;45521;-79
2022/03/02 04:42:26;;;;;;;;;37.75;33.50;;;;;11.25;44.13;101327.25;5079283;27;48485;-80
2022/03/02 04:44:51;;;;;;;;;43.50;36.00;;;;;11.30;44.17;101347.00;5100042;27;45532;-81
2022/03/02 04:47:17;;;;;;;;;38.00;33.00;;;;;11.29;44.17;101341.84;5100944;27;45579;-82
2022/03/02 04:49:42;;;;;;;;;34.25;32.50;;;;;11.11;44.16;101308.91;5098806;27;45555;-82
2022/03/02 04:52:08;;;;;;;;;39.75;34.50;;;;;11.23;44.19;101336.97;5096435;27;45574;-83
2022/03/02 04:57:17;;;;;;;;;40.25;37.00;;;;;11.21;44.34;101342.34;5096632;27;45742;-82
2022/03/02 04:59:43;;;;;;;;;37.00;33.00;;;;;11.20;44.16;101334.56;5096331;27;45589;-83
2022/03/02 05:02:08;;;;;;;;;48.75;38.50;;;;;11.13;44.07;101338.47;5096205;27;46094;-81
2022/03/02 05:04:33;;;;;;;;;41.25;35.75;;;;;11.17;44.22;101343.47;5096115;27;45976;-78
2022/03/02 05:06:59;;;;;;;;;38.00;34.75;;;;;11.07;44.36;101321.34;5095582;27;45899;-79
2022/03/02 05:09:24;;;;;;;;;35.00;31.50;;;;;11.14;44.34;101332.31;5095554;27;45530;-79
2022/03/02 05:15:13;;;;;;;;;40.50;34.50;;;;;11.11;44.45;101332.50;5095935;27;45547;-77
2022/03/02 05:17:40;;;;;;;;;41.00;35.75;;;;;11.01;44.12;101319.13;5095800;27;45602;-79
2022/03/02 05:20:07;;;;;;;;;37.50;35.50;;;;;11.07;44.38;101331.00;5095898;27;45661;-80
2022/03/02 05:22:33;;;;;;;;;43.25;35.75;;;;;11.06;44.23;101337.19;5095486;27;46266;-78
2022/03/02 05:24:59;;;;;;;;;39.75;34.25;;;;;10.94;44.28;101308.16;5095289;27;45737;-77
2022/03/02 05:27:25;;;;;;;;;40.25;34.75;;;;;11.04;44.30;101331.19;5076563;27;45863;-78
2022/03/02 05:29:50;;;;;;;;;37.25;33.50;;;;;10.94;44.54;101310.78;5094699;27;45844;-80
2022/03/02 05:32:16;;;;;;;;;35.25;29.50;;;;;10.81;44.50;101290.66;5094860;27;45518;-78
2022/03/02 05:34:43;;;;;;;;;39.00;32.25;;;;;10.93;44.61;101311.72;5095009;27;45581;-79
2022/03/02 05:37:08;;;;;;;;;42.00;35.75;;;;;10.74;44.63;101273.63;5094812;27;45512;-79
2022/03/02 05:39:34;;;;;;;;;38.75;32.00;;;;;10.96;44.55;101315.09;5076280;27;48704;-79
2022/03/02 05:45:21;;;;;;;;;37.50;34.75;;;;;10.93;44.78;101303.84;5094159;27;45910;-80
2022/03/02 05:47:46;;;;;;;;;34.00;31.25;;;;;10.93;44.74;101308.25;5094973;27;45650;-79
2022/03/02 05:50:12;;;;;;;;;41.00;37.00;;;;;10.85;44.58;101298.22;5094917;27;46567;-77
2022/03/02 05:52:37;;;;;;;;;39.50;35.00;;;;;10.88;44.65;101308.53;5093452;27;46361;-79
2022/03/02 05:55:04;;;;;;;;;44.25;35.50;;;;;10.81;44.67;101295.88;5094774;27;45590;-77
2022/03/02 05:57:29;;;;;;;;;37.25;35.25;;;;;10.86;44.76;101306.94;5095022;27;45515;-76
2022/03/02 05:59:54;;;;;;;;;36.75;32.75;;;;;10.80;44.78;101302.06;5094654;27;46712;-79
2022/03/02 06:02:20;;;;;;;;;36.25;31.00;;;;;10.67;44.94;101273.16;5095535;27;45971;-79
2022/03/02 06:04:47;;;;;;;;;41.00;35.75;;;;;10.72;44.89;101285.97;5095292;27;45680;-78
2022/03/02 06:07:12;;;;;;;;;36.00;32.75;;;;;10.84;44.80;101309.66;5095203;27;45742;-78
2022/03/02 06:09:38;;;;;;;;;34.75;29.75;;;;;10.85;45.04;101311.34;5095221;27;45500;-78
2022/03/02 06:15:25;;;;;;;;;43.00;36.00;;;;;10.70;44.73;101290.47;5095739;27;45981;-79
2022/03/02 06:17:52;;;;;;;;;40.25;34.75;;;;;10.77;44.86;101310.97;5096076;27;45856;-79
2022/03/02 06:20:18;;;;;;;;;23.50;19.50;;;;;10.76;44.87;101309.28;5099744;27;48300;-79
2022/03/02 06:22:44;;;;;;;;;39.50;35.25;;;;;10.73;44.95;101312.09;5098452;27;46357;-79
2022/03/02 06:31:52;;;;;;;;;40.00;32.75;;;;;10.66;45.21;101305.53;5095697;27;46115;-78
2022/03/02 06:34:18;;;;;;;;;41.00;32.50;;;;;10.53;45.28;101279.22;5098528;27;45877;-78
2022/03/02 06:36:49;;;;;;;;;41.50;36.25;;;;;10.58;45.01;101294.66;5080140;27;45530;-79
2022/03/02 06:39:16;;;;;;;;;42.50;35.50;;;;;10.61;45.31;101296.25;5099332;27;45574;-79
2022/03/02 06:45:37;;;;;;;;;41.50;35.00;;;;;10.60;45.17;101305.91;5100202;27;46221;-79
2022/03/02 06:48:16;;;;;;;;;36.25;32.25;;;;;10.37;45.26;101273.22;5108739;27;45565;-78
2022/03/02 06:50:44;;;;;;;;;33.25;27.25;;;;;10.61;45.27;101317.22;5111189;27;45259;-79
2022/03/02 06:53:13;;;;;;;;;40.00;32.00;;;;;10.59;45.28;101309.44;5108283;27;45541;-79
2022/03/02 06:55:43;;;;;;;;;46.50;32.75;;;;;10.45;45.57;101294.56;5111378;27;46063;-80
2022/03/02 06:58:11;;;;;;;;;37.00;34.00;;;;;10.53;45.43;101302.78;5118228;27;45396;-77
2022/03/02 07:00:38;;;;;;;;;41.75;35.50;;;;;10.60;45.15;101320.78;5117633;27;45379;-77
2022/03/02 07:03:07;;;;;;;;;40.00;34.75;;;;;10.54;45.47;101306.25;5115556;27;46671;-77
2022/03/02 07:05:34;;;;;;;;;35.75;35.75;;;;;10.60;45.46;101320.78;5101227;27;45590;-78
2022/03/02 07:08:03;;;;;;;;;39.50;30.50;;;;;10.61;45.11;101314.59;5097499;27;45492;-79
2022/03/02 07:17:01;;;;;;;;;36.00;32.75;;;;;10.56;45.31;101308.78;5097580;27;46149;-80
2022/03/02 07:19:27;;;;;;;;;41.25;33.75;;;;;10.61;45.42;101317.22;5097290;27;45548;-78
2022/03/02 07:21:55;;;;;;;;;38.25;30.50;;;;;10.61;45.50;101317.22;5096992;27;45687;-78
2022/03/02 07:24:22;;;;;;;;;39.00;33.50;;;;;10.63;45.43;101320.59;5097585;27;45574;-78
2022/03/02 07:26:53;;;;;;;;;42.50;34.00;;;;;10.63;45.33;101326.69;5096941;27;46089;-79
2022/03/02 07:29:20;;;;;;;;;44.75;35.50;;;;;10.62;45.43;101321.53;5097406;27;45858;-79
2022/03/02 07:31:46;;;;;;;;;38.75;34.25;;;;;10.63;45.44;101315.38;5097093;27;45534;-78
2022/03/02 07:34:15;;;;;;;;;43.75;36.75;;;;;10.64;45.35;101322.25;5097196;27;45596;-80
2022/03/02 07:36:41;;;;;;;;;37.00;31.50;;;;;10.56;45.32;101304.41;5095633;27;47456;-78
2022/03/02 07:39:10;;;;;;;;;42.00;33.00;;;;;10.68;45.50;101323.78;5097682;27;45583;-79
2022/03/02 07:41:36;;;;;;;;;43.00;35.50;;;;;10.62;45.34;101308.44;5096952;27;45577;-79
2022/03/02 07:44:02;;;;;;;;;35.25;29.50;;;;;10.66;45.73;101316.00;5097315;27;45592;-80
2022/03/02 07:46:29;;;;;;;;;39.75;35.50;;;;;10.69;45.36;101321.06;5078112;27;46566;-79
2022/03/02 07:48:57;;;;;;;;;46.75;37.25;;;;;10.70;45.54;101321.91;5096794;27;45787;-83
2022/03/02 07:51:24;;;;;;;;;36.75;33.75;;;;;10.71;45.61;101316.56;5096745;27;45753;-81
2022/03/02 07:53:51;;;;;;;;;45.75;36.25;;;;;10.74;45.51;101316.38;5096673;27;45650;-79
2022/03/02 07:56:19;;;;;;;;;39.00;36.00;;;;;10.76;45.41;101316.28;5096502;27;46018;-82
2022/03/02 07:58:45;;;;;;;;;50.00;39.25;;;;;10.80;45.67;101320.41;5078238;27;45537;-80
2022/03/02 08:01:18;;;;;;;;;39.25;33.50;;;;;10.76;45.31;101309.28;5097328;27;45631;-78
2022/03/02 08:03:45;;;;;;;;;36.75;34.00;;;;;10.69;45.51;101283.56;5095174;27;47925;-80
2022/03/02 08:06:13;;;;;;;;;37.75;34.75;;;;;10.79;45.71;101300.41;5096733;27;46071;-80
2022/03/02 08:08:44;;;;;;;;;38.25;34.75;;;;;10.84;45.70;101299.19;5097608;27;45666;-81
2022/03/02 08:11:10;;;;;;;;;39.25;35.25;;;;;10.71;45.59;101286.91;5096930;27;45900;-80
2022/03/02 08:13:38;;;;;;;;;46.75;37.00;;;;;10.67;45.54;101272.31;5078139;27;48246;-78
2022/03/02 08:16:04;;;;;;;;;36.75;34.50;;;;;10.62;45.59;101246.38;5096367;27;46149;-80
2022/03/02 08:18:29;;;;;;;;;42.25;35.25;;;;;10.63;45.50;101244.63;5078356;27;45683;-81
2022/03/02 08:20:57;;;;;;;;;42.25;36.75;;;;;11.05;45.50;101314.53;5077991;27;45543;-81
2022/03/02 08:23:40;;;;;;;;;45.50;36.75;;;;;10.76;45.58;101271.75;5096527;27;45576;-80
2022/03/02 08:26:05;;;;;;;;;47.00;35.75;;;;;10.45;45.54;101215.97;5096459;27;46360;-81
2022/03/02 08:31:57;;;;;;;;;41.00;35.00;;;;;10.92;45.71;101269.88;5086715;27;45668;-81
2022/03/02 08:34:23;;;;;;;;;47.50;37.00;;;;;11.12;45.31;101297.50;5096068;27;45508;-80
2022/03/02 08:36:50;;;;;;;;;44.50;38.00;;;;;11.18;45.39;101307.56;5095873;27;45973;-78
2022/03/02 08:39:15;;;;;;;;;43.75;36.50;;;;;11.10;45.02;101289.72;5096023;27;45804;-79
2022/03/02 08:41:41;;;;;;;;;41.00;36.25;;;;;11.30;45.31;101325.16;5095372;27;45741;-79
2022/03/02 08:44:08;;;;;;;;;50.25;39.00;;;;;11.33;45.24;101323.22;5077172;27;46450;-79
2022/03/02 08:46:34;;;;;;;;;48.25;37.75;;;;;11.22;44.93;101294.19;5095464;27;46232;-82
2022/03/02 08:49:09;;;;;;;;;44.50;36.50;;;;;11.28;44.97;101306.09;5095902;27;45500;-78
2022/03/02 08:51:36;;;;;;;;;44.75;36.25;;;;;11.30;45.07;101296.31;5094979;27;45617;-78
2022/03/02 08:54:04;;;;;;;;;36.50;32.25;;;;;11.46;44.98;101318.03;5094750;27;45623;-79
2022/03/02 08:56:37;;;;;;;;;42.50;35.75;;;;;11.43;44.75;101306.88;5095103;27;46175;-80
2022/03/02 08:59:04;;;;;;;;;44.50;38.00;;;;;11.54;44.65;101321.00;5095780;27;45903;-80
2022/03/02 09:01:31;;;;;;;;;41.00;35.50;;;;;11.57;44.65;101317.34;5093861;27;45498;-80
2022/03/02 09:03:59;;;;;;;;;47.25;38.00;;;;;11.52;44.71;101304.50;5095228;27;47343;-79
2022/03/02 09:06:26;;;;;;;;;41.50;34.50;;;;;11.45;44.60;101279.59;5095549;27;46430;-79
2022/03/02 09:08:51;;;;;;;;;40.25;34.75;;;;;11.69;44.49;101308.69;5095216;27;45750;-79
2022/03/02 09:11:17;;;;;;;;;48.00;38.00;;;;;11.67;44.32;101298.28;5095543;27;45587;-80
2022/03/02 09:17:05;;;;;;;;;45.00;39.00;;;;;11.82;44.36;101311.41;5094778;27;46164;-80
2022/03/02 09:19:32;;;;;;;;;44.00;38.00;;;;;11.86;44.44;101302.38;5095131;27;45923;-81
2022/03/02 09:21:58;;;;;;;;;46.25;35.50;;;;;11.89;44.26;101304.78;5095385;27;45962;-81
2022/03/02 09:24:29;;;;;;;;;33.75;30.25;;;;;11.85;43.97;101285.78;5093941;27;47496;-82
2022/03/02 09:26:59;;;;;;;;;36.50;34.50;;;;;11.95;44.05;101292.09;5094592;27;47265;-82
2022/03/02 09:29:31;;;;;;;;;38.75;35.25;;;;;11.89;43.72;101278.53;5095080;27;45917;-78
2022/03/02 09:31:58;;;;;;;;;45.75;37.50;;;;;12.03;43.70;101296.88;5094673;27;45593;-77
2022/03/02 09:34:29;;;;;;;;;41.75;36.25;;;;;12.00;43.80;101287.41;5094868;27;47415;-80
2022/03/02 09:36:59;;;;;;;;;47.00;37.75;;;;;12.08;43.55;101289.53;5093979;27;46226;-78
2022/03/02 09:39:25;;;;;;;;;44.75;38.25;;;;;12.13;43.55;101297.94;5094680;27;45992;-77
2022/03/02 09:42:05;;;;;;;;;47.00;35.50;;;;;12.20;43.41;101299.19;5094977;27;45600;-80
2022/03/02 09:44:58;;;;;;;;;39.50;34.00;;;;;12.22;43.14;101294.69;5094695;27;45522;-81
2022/03/02 09:47:36;;;;;;;;;37.25;31.50;;;;;11.92;43.29;101249.47;5076211;27;48026;-79
2022/03/02 09:50:03;;;;;;;;;36.75;33.25;;;;;11.88;43.22;101233.06;5093251;27;45826;-77
2022/03/02 09:52:31;;;;;;;;;42.75;33.00;;;;;12.02;43.14;101255.78;5095027;27;45609;-80
2022/03/02 09:54:57;;;;;;;;;41.25;36.00;;;;;12.22;43.11;101285.97;5097086;27;46338;-80
2022/03/02 09:57:24;;;;;;;;;43.25;37.25;;;;;12.27;43.24;101297.00;5098256;27;46342;-83
2022/03/02 09:59:52;;;;;;;;;48.00;38.25;;;;;12.20;43.21;101278.16;5098669;27;45664;-82
2022/03/02 10:02:36;;;;;;;;;46.00;37.00;;;;;12.31;43.27;101286.19;5080158;27;45864;-82
2022/03/02 10:05:08;;;;;;;;;34.50;27.25;;;;;12.37;43.24;101292.81;5098021;27;47341;-81
2022/03/02 10:07:40;;;;;;;;;44.75;39.00;;;;;12.40;43.29;101288.22;5098696;27;45788;-83
2022/03/02 10:10:05;;;;;;;;;35.75;32.75;;;;;12.45;43.08;101288.72;5098916;27;45678;-80
2022/03/02 10:12:33;;;;;;;;;38.50;33.25;;;;;12.51;43.03;101292.72;5099894;27;45742;-82
2022/03/02 10:14:59;;;;;;;;;36.75;34.25;;;;;12.56;42.93;101288.84;5099453;27;45555;-81
2022/03/02 10:17:39;;;;;;;;;42.75;37.00;;;;;12.46;42.74;101263.28;5100291;27;45685;-81
2022/03/02 10:20:20;;;;;;;;;35.50;34.50;;;;;12.58;42.96;101279.03;5098790;27;45810;-79
2022/03/02 10:22:46;;;;;;;;;40.75;35.00;;;;;12.73;43.05;101285.06;5098382;27;45630;-79
2022/03/02 10:25:14;;;;;;;;;37.75;33.75;;;;;12.78;42.49;101285.56;5098480;27;45543;-78
2022/03/02 10:28:00;;;;;;;;;36.75;33.50;;;;;12.63;42.39;101243.75;5097920;27;46271;-81
2022/03/02 10:30:32;;;;;;;;;42.50;34.25;;;;;12.85;42.48;101271.03;5079594;27;45959;-79
2022/03/02 10:33:16;;;;;;;;;42.75;35.50;;;;;12.88;42.50;101262.94;5079220;27;45545;-79
2022/03/02 10:35:50;;;;;;;;;31.50;30.25;;;;;12.97;42.42;101258.81;5097563;27;46799;-79
2022/03/02 10:38:22;;;;;;;;;40.75;33.50;;;;;13.04;42.08;101252.19;5097954;27;46253;-79
2022/03/02 10:40:53;;;;;;;;;41.50;34.50;;;;;13.08;41.68;101251.00;5098187;27;45697;-80
2022/03/02 10:43:21;;;;;;;;;44.00;36.50;;;;;13.14;42.02;101247.13;5097534;27;45715;-79
2022/03/02 10:45:51;;;;;;;;;46.25;36.25;;;;;13.29;41.75;101259.19;5097330;27;45621;-78
2022/03/02 10:48:42;;;;;;;;;43.00;36.75;;;;;13.32;41.74;101249.31;5097693;27;46106;-80
2022/03/02 10:51:10;;;;;;;;;44.50;36.50;;;;;13.37;41.40;101251.59;5097389;27;45901;-80
2022/03/02 10:53:40;;;;;;;;;44.25;36.25;;;;;13.41;41.37;101248.63;5098019;27;45639;-79
2022/03/02 10:56:08;;;;;;;;;41.75;36.00;;;;;13.46;41.25;101248.28;5097032;27;45883;-80
2022/03/02 10:58:34;;;;;;;;;51.75;38.00;;;;;13.41;41.01;101232.81;5097742;27;46015;-79
2022/03/02 11:01:02;;;;;;;;;43.50;36.00;;;;;13.51;41.07;101242.69;5097822;27;46158;-79
2022/03/02 11:03:33;;;;;;;;;41.50;34.00;;;;;13.56;40.66;101237.91;5097784;27;45567;-79
2022/03/02 11:06:00;;;;;;;;;46.25;37.00;;;;;13.48;40.81;101220.06;5095018;27;47649;-80
2022/03/02 11:08:26;;;;;;;;;41.00;34.00;;;;;13.54;40.52;101219.63;5079016;27;47680;-79
2022/03/02 11:10:52;;;;;;;;;40.00;34.00;;;;;13.67;40.59;101236.16;5097530;27;45629;-79
2022/03/02 11:13:23;;;;;;;;;44.00;36.50;;;;;13.70;40.79;101222.81;5097799;27;45532;-79
2022/03/02 11:15:57;;;;;;;;;46.75;37.75;;;;;13.73;40.19;101219.09;5096908;27;45777;-80
2022/03/02 11:18:39;;;;;;;;;43.75;36.25;;;;;13.81;40.65;101233.38;5097219;27;45712;-80
2022/03/02 11:21:11;;;;;;;;;42.25;37.00;;;;;13.85;40.28;101226.06;5097089;27;45454;-81
2022/03/02 11:24:04;;;;;;;;;44.25;37.75;;;;;13.87;40.14;101226.81;5097497;27;45624;-80
2022/03/02 11:26:37;;;;;;;;;44.50;38.75;;;;;13.78;39.97;101187.97;5094375;27;46505;-81
2022/03/02 11:29:11;;;;;;;;;46.25;37.75;;;;;13.98;40.08;101215.47;5097130;27;46129;-81
2022/03/02 11:31:54;;;;;;;;;48.50;37.50;;;;;14.03;40.13;101213.31;5097229;27;45872;-82
2022/03/02 11:34:23;;;;;;;;;48.50;37.00;;;;;14.07;39.80;101212.13;5098196;27;45857;-83
2022/03/02 11:36:52;;;;;;;;;48.00;37.00;;;;;14.12;39.79;101209.97;5098006;27;45714;-81
2022/03/02 11:39:21;;;;;;;;;45.00;36.00;;;;;14.15;39.97;101204.47;5097481;27;46162;-77
2022/03/02 11:41:51;;;;;;;;;40.25;35.00;;;;;13.97;39.98;101174.25;5097291;27;45968;-80
2022/03/02 11:44:30;;;;;;;;;35.50;33.25;;;;;14.22;39.71;101198.63;5096965;27;45650;-80
2022/03/02 11:47:00;;;;;;;;;51.50;39.50;;;;;14.16;39.90;101179.78;5096267;27;47631;-78
2022/03/02 11:49:49;;;;;;;;;40.50;35.25;;;;;14.33;39.61;101200.41;5095367;27;47851;-79
2022/03/02 11:52:22;;;;;;;;;43.00;35.00;;;;;14.35;40.12;101182.69;5097139;27;45609;-81
2022/03/02 11:54:59;;;;;;;;;39.00;33.00;;;;;14.37;39.21;101178.16;5096897;27;45521;-78
2022/03/02 11:57:27;;;;;;;;;48.75;37.25;;;;;14.51;39.58;101192.91;5096519;27;46565;-81
2022/03/02 12:00:26;;;;;;;;;43.25;36.00;;;;;14.57;39.38;101187.16;5096466;27;46381;-79
2022/03/02 12:03:07;;;;;;;;;42.75;35.00;;;;;14.60;38.99;101181.66;5013454;28;45757;-79
2022/03/02 12:05:33;;;;;;;;;43.25;35.75;;;;;14.62;38.61;101177.94;5013607;28;45705;-78
2022/03/02 12:08:12;;;;;;;;;41.75;34.50;;;;;14.65;38.71;101171.56;4996535;28;47368;-81
2022/03/02 12:10:41;;;;;;;;;47.25;37.00;;;;;14.61;39.00;101164.88;4996200;28;46946;-80
2022/03/02 12:16:51;;;;;;;;;38.25;35.00;;;;;14.68;38.14;101148.41;5012499;28;45548;-81
2022/03/02 12:19:34;;;;;;;;;44.25;34.00;;;;;14.79;38.48;101159.94;5013166;28;46366;-81
2022/03/02 12:22:06;;;;;;;;;39.25;33.00;;;;;14.81;38.46;101147.44;5013282;28;45985;-79
2022/03/02 12:24:34;;;;;;;;;37.00;32.50;;;;;14.90;38.53;101158.09;5013215;28;45677;-78
2022/03/02 12:27:03;;;;;;;;;43.75;36.00;;;;;14.92;38.51;101155.34;5016196;28;45984;-79